Dryden Regional Airport
CYHD : now visible

Airfield :











YOU CAN JOIN US ON...

 
LOGIN :

Register | Disclaimer

   EN    FR    IT 

 









Legend :    VFR   Marginal VFR   IFR   Intensive IFR   Very Intensive IFR
Visi :
Ceiling :
>= 8 km
>= 3000ft
5 to 8 km
1000 to 3000 ft
1500m to 5 km
500 to 1000 ft
800 to 1500m
200 to 500 ft
< 800m
< 200 ft
Symbols :   Thunderstorms  Fog  Heavy snow  Heavy precipitations  Wind > 20 kt






- Airport Elevation : 1354 ft
- IATA code : YHD


CYHD - Dryden Regional

CURRENT METAR :
  • 300800Z AUTO 19007KT 9SM CLR 09/07 A3013 RMK SLP214

EXPIRED METARs :
  • 300700Z AUTO 19006KT 9SM CLR 10/07 A3013 RMK SLP213
  • 300600Z AUTO 20004KT 9SM CLR 11/07 A3013 RMK SLP213

TAF TAF CYHD
Valid from the 30 at 08:00 until the 30 at 20:00 UTC


300740Z 3008/3020 19007KT P6SM SKC
BECMG 3008/3009 VRB03KT
BECMG 3016/3018 06005KT RMK FCST BASED ON AUTO OBS. NXT FCST BY 301400Z
CZWG FIR / North America



MET'MAP, your aeronautical weather chart ! - Copyright ORBIFLY December 2007 - Disclaimer

ORBIFLY MET'MAP TEAM :

Programming & Development : Alexandra Zaïnal
Original concept : Baudouin d'Aumeries
Technical & hardware support : Manuel Goepfert
Assistance : Marc-Olivier Méhu




SOURCES & CREDITS :

   NOAA       Earth
Advisory